Avenel, New Jersey
Current Conditions -  °F | °C
As of 1:35 PM on Saturday 25 Oct 2014 (Local Time) from KLDJ Reporting Station
Clear Clear  
Wind Chill: 69°   Ceiling: Unl
Heat Index: 69°   Visibility: 10mi
Dew Point: 42°   Wind: 7mph
Humidity: 38%   Direction: 270°W
Pressure: 29.76"   Gusts: NA
Location:  40.58°N, 74.28°W
Report Text: KLDJ 251735Z AUTO 27006KT 10SM CLR 21/06 A2976 RMK AO2 T02050058
Loading
Personal Weather Stations






























Interactive Weather Map
Tropical Storm Tracking
New forecast layout! Learn more

10-Day Weather Forecast

Advertisements
Track Severe Weather on mobile